This is the latest recevied weather packets stored in our database for station/object TG5ALY-16. If no packets are shown the sender has not sent any weather packets the latest 10 day(s).
| Time | Temp. | Humidity | Pressure | Rain* | Wind** | Luminosity | Snow |
|---|---|---|---|---|---|---|---|
| 1778015896 | 21.67° C | 66% | 1014 hPa | 0 mm | - | - | - |
| 1778015296 | 21.67° C | 66% | 1014 hPa | 0 mm | - | - | - |
| 1778014695 | 23.33° C | 63% | 1013 hPa | 0 mm | - | - | - |
| 1778014094 | 23.33° C | 62% | 1013 hPa | 0 mm | - | - | - |
| 1778013493 | 23.89° C | 52% | 1013 hPa | 0 mm | - | - | - |
| 1778012893 | 23.89° C | 53% | 1014 hPa | 0 mm | - | - | - |
| 1778012292 | 22.22° C | 62% | 1014 hPa | 0 mm | - | - | - |
| 1778011691 | 22.22° C | 62% | 1014 hPa | 0 mm | - | - | - |
| 1778011090 | 23.33° C | 59% | 1013 hPa | 0 mm | - | - | - |
| 1778010490 | 23.33° C | 55% | 1013 hPa | 0 mm | - | - | - |
| 1778009889 | 23.33° C | 55% | 1013 hPa | 0 mm | - | - | - |
| 1778009289 | 23.33° C | 55% | 1014 hPa | 0 mm | - | - | - |
| 1778008688 | 23.89° C | 51% | 1014 hPa | 0 mm | - | - | - |
| 1778008087 | 23.89° C | 51% | 1013 hPa | 0 mm | - | - | - |
| 1778007487 | 23.89° C | 37% | 1013 hPa | 0 mm | - | - | - |
| 1778006886 | 23.89° C | 39% | 1013 hPa | 0 mm | - | - | - |
| 1778006285 | 23.33° C | 43% | 1014 hPa | 0 mm | - | - | - |
| 1778005685 | 23.33° C | 43% | 1015 hPa | 0 mm | - | - | - |
| 1778005084 | 22.78° C | 46% | 1015 hPa | 0 mm | - | - | - |
| 1778004484 | 22.78° C | 47% | 1015 hPa | 0 mm | - | - | - |
| 1778003883 | 22.22° C | 53% | 1015 hPa | 0 mm | - | - | - |
| 1778003282 | 21.67° C | 58% | 1015 hPa | 0 mm | - | - | - |
| 1778002681 | 21.67° C | 58% | 1015 hPa | 0 mm | - | - | - |
| 1778002081 | 21.67° C | 58% | 1015 hPa | 0 mm | - | - | - |
| 1778001480 | 21.67° C | 58% | 1015 hPa | 0 mm | - | - | - |
* Rain latest hour (hover to see other rain measurements)
** Current wind speed in m/s (hover to see current wind gust speed)